Frederick, IL (62639)

8:35 AM CDT on May 25, 2017 (GMT -0500)
Main Street Local 1 | | Change Station
Active Advisory: Flood Warning

Elev 630 ft 39.95 °N, 90.21 °W | Updated 13 seconds ago

Partly Cloudy
Partly Cloudy
56.7 °F
Feels Like 56.7 °F
N
3.0
Wind Variable Wind from West

Today
High -- | Low -- °F
--% Chance of Precip.
Yesterday
High -- | Low -- °F
Precip. -- in
Pressure 29.69 in
Visibility 10.0 miles
Clouds Mostly Cloudy 800 ft
Dew Point 54 °F
Humidity 91%
Rainfall 0.00 in
Snow Depth Not available.
5:38 AM 8:19 PM
Waning Crescent, 0% visible
METAR KIJX 251315Z AUTO 30008KT 10SM BKN008 13/11 A2969 RMK AO2 T01280112
Pressure 29.69 in
Visibility 10.0 miles
Clouds Mostly Cloudy 800 ft
Dew Point 54 °F
Humidity 91%
Rainfall 0.00 in
Snow Depth Not available.
5:38 AM 8:19 PM
Waning Crescent, 0% visible
METAR KIJX 251315Z AUTO 30008KT 10SM BKN008 13/11 A2969 RMK AO2 T01280112

Get Your Daily Forecast Email!

Thanks for signing up!

Be on the lookout for a verification email in your inbox.

You'll start receiving severe weather alerts in your inbox..

×

10-Day Weather Forecast

Almanac

Astronomy

May. 25, 2017 Rise Set
Actual Time
Civil Twilight
Nautical Twilight
Astronomical Twilight
Moon
Length of Visible Light
Length of Day
Tomorrow will be .
, % of the Moon is Illuminated

Today's Extremes

State Highs State Lows

Community

WunderPhotos

Category 6

Welcome to Category 6. This is the collective home for Weather Underground's featured writeups by Dr. Jeff Masters (right), Bob Henson (left), Chris Burt, and other regular contributors.

Nearby

Air Quality

  Air Quality AQ Index Pollutant
Not available.

Snow Depth

Station Depth Elevation

Earthquake Activity

City Distance Mag. Time & Date
Minimum magnitude displayed is 2.5.

Coastal Water Temperatures

Place Temperature

Stations

Nearby Weather Stations

Station Location Temp. Windchill Dew Point Humidity Wind Precip. Elev Updated Type
                   

Watches & Warnings

Flood Warning
Issued: 9:23 PM CDT May. 24, 2017 – National Weather Service

The Flood Warning continues for
the Illinois River at Beardstown.
* Until further notice.
* At 845 PM Wednesday the stage was 22.1 feet.
* Flood stage is 14.0 feet.
* Moderate flooding is occurring and moderate flooding is forecast.
* Forecast... the river will continue to fall to a stage of 22.1 feet
by Friday morning.



                  Fld observed forecast 6am
location stg stg day time Thu Fri Sat

Illinois River
Beardstown 14 22.1 Wed 9 PM 22.1 22.1 21.9



Lat... Lon 4018 9023 4012 9017 4008 9037 3999 9046
      3999 9058 4015 9043